Ahoskie, NC

03:15 AM EDT af August 29, 2015 (GMT -0400)
Tri County | | Change Station
CLOSE
Current Station
Airport
Location: Ahoskie,
Elevation: 69 ft
Nearby Weather Stations

Elev 69 ft 36.30 °N, 77.17 °W | Updated 20 minutes ago

klor
klor
58 °f
Feels Like 58 °f
N
0
vint baytevdik vint from tsofn[ts]

haynt
High -- | Low -- °f
--% Chance of Precip.
Yesterday
High -- | Low -- °f
Precip. -- in
6:36 AM 7:40 PM
Full, 100% visible
druk 30.19 in
zeevdikeyt 10.0 mayln
Clouds klor
toypunkt 56 °f
faykhtkeyt 94%
Rainfall 0.00 in
Snow Depth Not available.
UV 0 out of 12
Pollen 9.30 out of 12
Air Quality Not available.
Flu Activity Not available.
METAR KASJ 290655Z AUTO 00000KT 10SM CLR 15/14 A3019 RMK AO2 T01450135
druk 30.19 in
zeevdikeyt 10.0 mayln
Clouds klor
toypunkt 56 °f
faykhtkeyt 94%
Rainfall 0.00 in
Snow Depth Not available.
UV 0 out of 12
Pollen 9.30 out of 12
Air Quality Not available.
Flu Activity Not available.
METAR KASJ 290655Z AUTO 00000KT 10SM CLR 15/14 A3019 RMK AO2 T01450135

10-Day Weather Forecast

×

Almanac

Astronomy

Aug. 29, 2015 Rise Set
Actual Time
Civil Twilight
Nautical Twilight
Astronomical Twilight
Moon
Length Of Visible Light
Length of Day
Tomorrow will be .
, % of the Moon is Illuminated

Today's Extremes

State Highs State Lows

Community

WunderPhotos

Upload Photos

1,850,632 photos uploaded!

WunderBlogs® & News

Nearby

Air Quality

  Air Quality AQ Index Pollutant
Not available.

Snow Depth

Station Depth Elevation

Earthquake Activity

City Distance Mag. Time & Date
Minimum magnitude displayed is 2.5.

Coastal Water Temperatures

plats temperatur

Stations

Nearby Weather Stations

Station Location Temp vintkelt toypunkt faykhtkeyt vint Precip. Elev dertsaytikt Type